x

San Clemente Basin - 27nm Se Of San Clemente Is, Ca (46086) Wave Buoy

5:50pm - Mon 31st Aug 2015 All times are PDT. -7 hours from GMT.

  • Sig Wave height 4.9ft
  • Swell Direction
  • Peak Period 16s
  • Average Period 7s
  • Wind
    13mph, 20mph gusts
  • Sea Temp 72°f
  • Air Temp 68°f
  • Sea Pressure 1011mb
  • San Clemente Basin - 27nm Se Of San Clemente Is, Ca
  • San Clemente Basin - 27nm Se Of San Clemente Is, Ca

More Historic Weather Station data

Upgrade to MSW Pro to gain access to the past 30 days of data for over 8000 Wavebouys and Weather Stations around the globe.

Join Pro

Comparision Forecast

View Surf forecast
   
Mon 08/31 5:50pm 5ft 16s 7s 13 20 mph 1011mb 72f 68f
4:50pm 5ft 8s 7s 13 18 mph 1011.2mb 72f 68f
3:50pm 6ft 9s 7s 11 16 mph 1011.5mb 72f 67f
2:50pm 6ft 9s 7s 9 11 mph 1011.8mb 72f 67f
1:50pm 6ft 8s 7s 7 9 mph 1012.3mb 73f 68f
12:50pm 6ft 16s 7s 4 7 mph 1012.5mb 72f 68f
11:50am 6ft 9s 7s 7 9 mph 1012.8mb 72f 68f
10:50am 6ft 8s 7s 7 9 mph 1012.8mb 72f 68f
9:50am 6ft 8s 7s 4 9 mph 1012.6mb 72f 67f
8:50am 6ft 17s 7s 7 9 mph 1012.1mb 72f 67f
7:50am 5.5ft 17s 7s 9 13 mph 1011.9mb 72f 67f
6:50am 6ft 8s 7s 7 11 mph 1011.5mb 72f 67f
5:50am 5.5ft 8s 6s 11 13 mph 1011.1mb 72f 67f
4:50am 6ft 8s 7s 11 13 mph 1010.8mb 72f 67f
3:50am 6ft 8s 7s 11 16 mph 1010.7mb 72f 67f
2:50am 6ft 7s 6s 13 18 mph 1010.7mb 72f 67f
1:50am 6ft 7s 6s 13 16 mph 1010.9mb 72f 67f
12:50am 6ft 16s 6s 13 16 mph 1011.1mb 72f 67f
Sun 08/30 11:50pm 6ft 7s 6s 13 16 mph 1010.9mb 72f 67f
10:50pm 6.5ft 8s 6s 16 18 mph 1011.3mb 72f 67f
9:50pm 7ft 8s 6s 18 20 mph 1011.1mb 72f 67f
8:50pm 6ft 8s 6s 20 22 mph 1011mb 72f 67f
7:50pm 7ft 7s 6s 22 27 mph 1010.1mb 72f 67f
6:50pm 6.5ft 8s 6s 22 27 mph 1010mb 72f 68f
5:50pm 6ft 7s 6s 25 27 mph 1010.5mb 73f 68f
4:50pm 6ft 7s 6s 20 25 mph 1011mb 72f 68f
3:50pm 6.5ft 14s 6s 22 25 mph 1011.4mb 72f 68f
2:50pm 6.5ft 8s 6s 20 22 mph 1012.2mb 72f 69f
1:50pm 7ft 7s 6s 18 22 mph 1012.8mb 72f 68f
12:50pm 6.5ft 13s 6s 20 22 mph 1013.2mb 72f 68f
11:50am 6ft 8s 6s 18 22 mph 1013.6mb 72f 69f
10:50am 6ft 7s 6s 18 22 mph 1013.6mb 72f 69f
9:50am 5.5ft 7s 6s 20 25 mph 1013mb 72f 69f
8:50am 5.5ft 7s 6s 18 20 mph 1012.7mb 72f 69f
7:50am 5ft 14s 6s 18 20 mph 1012.6mb 72f 69f
6:50am 5.5ft 13s 6s 18 20 mph 1012mb 72f 70f
5:50am 5ft 14s 6s 18 20 mph 1011.6mb 72f 70f
4:50am 5.5ft 14s 6s 16 20 mph 1011.5mb 72f 71f
3:50am 5.5ft 14s 6s 11 16 mph 1011.4mb 72f 70f
2:50am 5ft 14s 6s 16 18 mph 1011.1mb 72f 70f
1:50am 5.5ft 14s 6s 16 18 mph 1011.3mb 72f 70f
12:50am 5ft 14s 6s 16 20 mph 1011.4mb 72f 71f
Sat 08/29 11:50pm 5ft 15s 6s 16 18 mph 1011.3mb 72f 71f
10:50pm 5ft 14s 6s 16 18 mph 1011.3mb 72f 71f
9:50pm 5ft 14s 6s 16 18 mph 1011.3mb 73f 71f
8:50pm 5.5ft 14s 6s 18 22 mph 1010.8mb 73f 71f
7:50pm 5ft 15s 5s 20 22 mph 1010.2mb 73f 71f
6:50pm 4.5ft 14s 5s 20 25 mph 1009.8mb 73f 71f
5:50pm 4.5ft 14s 5s 20 22 mph 1010.2mb 73f 71f
4:50pm 4.5ft 15s 6s 18 22 mph 1010.4mb 73f 71f
3:50pm 4.5ft 15s 6s 18 20 mph 1011mb 73f 71f
2:50pm 4.5ft 14s 6s 16 18 mph 1011.6mb 73f 71f
1:50pm 4.5ft 13s 6s 13 16 mph 1012.3mb 73f 71f
12:50pm 4.5ft 14s 6s 13 16 mph 1012.2mb 73f 71f
11:50am 4.5ft 14s 7s 13 16 mph 1012.7mb 73f 71f
10:50am 4.5ft 14s 7s 9 11 mph 1012.9mb 73f 70f
9:50am 4.5ft 14s 7s 11 13 mph 1012.5mb 73f 70f
8:50am 3.5ft 15s 6s 9 11 mph 1012mb 73f 70f
7:50am 3.5ft 14s 6s 9 11 mph 1011.6mb 73f 70f
6:50am 4ft 15s 7s 9 11 mph 1011.3mb 72f 71f
5:50am 4ft 14s 7s 7 9 mph 1011mb 73f 71f
4:50am 3.5ft 14s 7s 11
mph
1010.5mb 73f 71f
3:50am 3.5ft 15s 7s 9
mph
1010.7mb 73f 70f
2:50am 3.5ft 15s 7s 11
mph
1010.7mb 73f 70f
1:50am 3.5ft 14s 7s 9 11 mph 1010.9mb 73f 71f
12:50am 3.5ft 15s 7s 7 9 mph 1011mb 72f 71f
Fri 08/28 11:50pm 3.5ft 15s 8s 7
mph
1011.5mb 72f 71f
10:50pm 3.5ft 15s 9s 4
mph
1011.5mb 72f 71f
9:50pm 3.5ft 15s 8s 4 7 mph 1011.2mb 72f 71f
8:50pm 3.5ft 15s 8s 2
mph
1010.9mb 72f 71f
7:50pm 4ft 15s 9s 2 4 mph 1010.3mb 72f 72f
6:50pm 3.5ft 15s 8s 9
mph
1009.7mb 73f 72f
5:50pm 3.5ft 15s 8s 11 13 mph 1009.5mb 73f 72f
4:50pm 3.5ft 15s 8s 11 13 mph 1009.6mb 74f 72f
3:50pm 3.5ft 15s 8s 9
mph
1010.1mb 74f 72f
2:50pm 3.5ft 15s 8s 9 11 mph 1010.5mb 74f 72f
1:50pm 3ft 15s 7s 7 9 mph 1011.1mb 75f 72f
12:50pm 3.5ft 15s 8s 2 4 mph 1011.4mb 75f 71f
11:50am 3.5ft 16s 7s 4
mph
1012.1mb 75f 71f
10:50am 3.5ft 16s 8s 2 4 mph 1012.2mb 74f 71f
9:50am 3.5ft 16s 8s  -  mph 1012.2mb 73f 72f
8:50am 3.5ft 16s 8s  -  mph 1012.1mb 73f 72f
7:50am 2.5ft 15s 7s 2
mph
1011.9mb 73f 71f
6:50am 3ft 16s 8s 2 4 mph 1011.4mb 73f 70f
5:50am 2.5ft 14s 7s 2 4 mph 1011.3mb 73f 70f
4:50am 3ft 14s 8s 7 9 mph 1011.4mb 73f 69f
3:50am 3ft 16s 8s 9 11 mph 1011.5mb 73f 69f
2:50am 2.5ft 16s 7s 7 9 mph 1012mb 72f 69f